createdAt,value
2019-04-01T00:01:48.564Z,95.10
2019-04-01T00:04:31.005Z,95.50
2019-04-01T00:07:13.822Z,96.10
2019-04-01T00:09:56.346Z,96.20
2019-04-01T00:12:32.117Z,96.20
2019-04-01T00:15:15.079Z,95.50
2019-04-01T00:17:57.689Z,94.80
2019-04-01T00:20:46.736Z,94.80
2019-04-01T00:23:29.516Z,95.20
2019-04-01T00:26:05.592Z,95.50
2019-04-01T00:28:48.438Z,96.30
2019-04-01T00:31:24.705Z,96.10
2019-04-01T00:34:07.050Z,96.20
2019-04-01T00:36:42.635Z,96.30
2019-04-01T00:39:25.791Z,96.70
2019-04-01T00:42:12.170Z,96.50
2019-04-01T00:44:54.213Z,96.30
2019-04-01T00:47:36.776Z,96.80
2019-04-01T00:50:20.705Z,97.30
2019-04-01T00:52:56.559Z,97.50
2019-04-01T00:55:39.477Z,97.70
2019-04-01T00:58:22.161Z,97.80
2019-04-01T01:01:05.202Z,98.00
2019-04-01T01:03:41.750Z,98.00
2019-04-01T01:06:24.262Z,98.40
2019-04-01T01:08:59.853Z,98.60
2019-04-01T01:11:42.014Z,98.50
2019-04-01T01:14:30.606Z,98.30
2019-04-01T01:17:12.430Z,98.50
2019-04-01T01:19:48.106Z,98.40
2019-04-01T01:22:30.860Z,98.90
2019-04-01T01:25:06.906Z,99.00
2019-04-01T01:27:42.622Z,99.20
2019-04-01T01:30:25.533Z,99.20
2019-04-01T01:33:07.621Z,99.10
2019-04-01T01:35:43.995Z,98.90
2019-04-01T01:38:26.913Z,99.00
2019-04-01T01:41:03.388Z,99.10
2019-04-01T01:43:46.648Z,99.10
2019-04-01T01:46:22.048Z,99.10
2019-04-01T01:49:04.092Z,99.10
2019-04-01T01:51:40.042Z,99.30
2019-04-01T01:54:22.325Z,99.40
2019-04-01T01:56:58.298Z,99.30
2019-04-01T01:59:41.529Z,99.30
2019-04-01T02:02:17.599Z,99.70
2019-04-01T02:05:00.608Z,99.30
2019-04-01T02:07:36.987Z,99.30
2019-04-01T02:10:19.451Z,99.00
2019-04-01T02:13:01.480Z,99.50
2019-04-01T02:15:43.517Z,99.00
2019-04-01T02:18:19.867Z,99.20
2019-04-01T02:21:01.702Z,99.50
2019-04-01T02:23:44.817Z,99.60
2019-04-01T02:26:20.386Z,99.30
2019-04-01T02:29:02.925Z,99.40
2019-04-01T02:31:52.148Z,99.50
2019-04-01T02:34:33.785Z,99.50
2019-04-01T02:37:09.681Z,99.50
2019-04-01T02:39:52.760Z,99.40
2019-04-01T02:42:35.385Z,99.40
2019-04-01T02:45:18.118Z,99.50
2019-04-01T02:47:53.780Z,99.70
2019-04-01T02:50:29.630Z,99.80
2019-04-01T02:53:12.092Z,99.60
2019-04-01T02:55:47.828Z,99.50
2019-04-01T02:58:30.558Z,99.50
2019-04-01T03:01:12.605Z,99.50
2019-04-01T03:03:55.603Z,99.60
2019-04-01T03:06:38.243Z,99.90
2019-04-01T03:09:14.762Z,99.60
2019-04-01T03:11:56.884Z,99.70
2019-04-01T03:14:39.531Z,99.80
2019-04-01T03:17:15.361Z,99.70
2019-04-01T03:19:57.673Z,99.70
2019-04-01T03:22:33.346Z,99.60
2019-04-01T03:25:09.020Z,99.50
2019-04-01T03:27:45.439Z,99.40
2019-04-01T03:30:27.962Z,99.30
2019-04-01T03:33:04.412Z,99.20
2019-04-01T03:35:46.670Z,99.50
2019-04-01T03:38:22.202Z,99.50
2019-04-01T03:41:04.879Z,99.40
2019-04-01T03:43:41.338Z,99.40
2019-04-01T03:46:24.063Z,99.80
2019-04-01T03:49:00.930Z,99.80
2019-04-01T03:51:42.996Z,99.70
2019-04-01T03:54:19.441Z,99.70
2019-04-01T03:57:01.434Z,99.90
2019-04-01T03:59:43.573Z,99.80
2019-04-01T04:02:26.123Z,99.90
2019-04-01T04:05:02.381Z,99.90
2019-04-01T04:07:44.406Z,99.90
2019-04-01T04:10:27.521Z,99.90
2019-04-01T04:13:09.092Z,99.90
2019-04-01T04:15:44.705Z,99.90
2019-04-01T04:18:26.912Z,99.90
2019-04-01T04:21:03.234Z,99.90
2019-04-01T04:23:45.724Z,99.90
2019-04-01T04:26:22.201Z,99.90
2019-04-01T04:29:04.698Z,99.90
2019-04-01T04:31:47.679Z,99.90
2019-04-01T04:34:23.151Z,99.90
2019-04-01T04:37:06.267Z,99.90
2019-04-01T04:39:49.109Z,99.90
2019-04-01T04:42:31.637Z,99.90
2019-04-01T04:45:08.835Z,99.90
2019-04-01T04:47:44.975Z,99.90
2019-04-01T04:50:21.822Z,99.90
2019-04-01T04:53:04.737Z,99.90
2019-04-01T04:55:40.899Z,99.90
2019-04-01T04:58:23.544Z,99.90
2019-04-01T05:00:59.393Z,99.70
2019-04-01T05:03:42.167Z,99.90
2019-04-01T05:06:39.370Z,99.90
2019-04-01T05:09:21.773Z,99.90
2019-04-01T05:11:57.359Z,99.60
2019-04-01T05:14:39.421Z,99.30
2019-04-01T05:17:14.885Z,99.00
2019-04-01T05:19:56.636Z,98.90
2019-04-01T05:22:33.335Z,98.50
2019-04-01T05:25:15.990Z,98.60
2019-04-01T05:28:01.901Z,97.80
2019-04-01T05:30:38.617Z,96.80
2019-04-01T05:33:23.141Z,96.40
2019-04-01T05:35:58.837Z,96.70
2019-04-01T05:38:41.703Z,95.70
2019-04-01T05:41:24.609Z,95.30
2019-04-01T05:44:02.473Z,95.40
2019-04-01T05:46:38.907Z,95.40
2019-04-01T05:49:15.480Z,95.60
2019-04-01T05:51:51.258Z,94.40
2019-04-01T05:54:34.518Z,93.60
2019-04-01T05:57:17.380Z,93.50
2019-04-01T06:00:00.446Z,93.10
2019-04-01T06:02:36.337Z,92.90
2019-04-01T06:05:19.269Z,93.30
2019-04-01T06:07:55.561Z,93.30
2019-04-01T06:10:39.029Z,93.40
2019-04-01T06:13:15.087Z,93.50
2019-04-01T06:15:57.296Z,93.90
2019-04-01T06:18:33.976Z,94.00
2019-04-01T06:21:16.855Z,93.80
2019-04-01T06:24:00.068Z,93.60
2019-04-01T06:26:35.889Z,93.90
2019-04-01T06:29:18.879Z,93.00
2019-04-01T06:32:01.105Z,93.30
2019-04-01T06:34:52.714Z,92.20
2019-04-01T06:37:21.791Z,91.70
2019-04-01T06:40:04.038Z,91.30
2019-04-01T06:42:53.103Z,90.70
2019-04-01T06:45:29.509Z,90.30
2019-04-01T06:48:12.768Z,90.00
2019-04-01T06:50:54.558Z,89.20
2019-04-01T06:53:30.975Z,88.50
2019-04-01T06:56:13.335Z,87.40
2019-04-01T06:58:56.375Z,86.80
2019-04-01T07:01:38.644Z,86.80
2019-04-01T07:04:14.539Z,86.90
2019-04-01T07:06:56.547Z,86.20
2019-04-01T07:09:32.269Z,85.70
2019-04-01T07:12:14.024Z,85.70
2019-04-01T07:14:50.706Z,85.20
2019-04-01T07:17:34.115Z,85.60
2019-04-01T07:20:10.088Z,84.90
2019-04-01T07:22:52.494Z,84.90
2019-04-01T07:25:28.989Z,84.50
2019-04-01T07:28:11.583Z,84.20
2019-04-01T07:30:47.676Z,83.20
2019-04-01T07:33:30.146Z,83.00
2019-04-01T07:36:19.795Z,82.10
2019-04-01T07:39:02.765Z,81.90
2019-04-01T07:41:39.116Z,81.60
2019-04-01T07:44:22.994Z,81.10
2019-04-01T07:46:59.148Z,80.60
2019-04-01T07:49:42.174Z,79.60
2019-04-01T07:52:25.129Z,78.60
2019-04-01T07:55:08.020Z,78.30
2019-04-01T07:57:44.410Z,74.90
2019-04-01T08:00:27.335Z,75.10
2019-04-01T08:03:04.146Z,73.50
2019-04-01T08:05:47.339Z,71.30
2019-04-01T08:08:30.172Z,69.20
2019-04-01T08:11:06.149Z,68.50
2019-04-01T08:13:48.695Z,67.80
2019-04-01T08:16:24.490Z,65.10
2019-04-01T08:19:07.360Z,60.00
2019-04-01T08:21:56.826Z,57.70
2019-04-01T08:24:32.680Z,59.90
2019-04-01T08:27:15.232Z,60.30
2019-04-01T08:29:50.860Z,57.10
2019-04-01T08:32:34.246Z,57.60
2019-04-01T08:35:17.462Z,54.60
2019-04-01T08:37:54.094Z,52.80
2019-04-01T08:40:36.077Z,54.70
2019-04-01T08:43:12.385Z,55.60
2019-04-01T08:45:55.300Z,56.50
2019-04-01T08:48:35.329Z,55.60
2019-04-01T08:51:16.291Z,56.60
2019-04-01T08:53:53.149Z,56.20
2019-04-01T08:56:38.077Z,55.20
2019-04-01T08:59:20.697Z,54.50
2019-04-01T09:02:17.711Z,51.80
2019-04-01T09:04:53.610Z,53.30
2019-04-01T09:07:29.792Z,55.70
2019-04-01T09:10:07.445Z,53.40
2019-04-01T09:12:51.052Z,53.10
2019-04-01T09:15:40.258Z,52.00
2019-04-01T09:18:23.197Z,53.10
2019-04-01T09:20:59.562Z,50.50
2019-04-01T09:23:41.841Z,51.30
2019-04-01T09:26:17.489Z,49.60
2019-04-01T09:29:00.290Z,49.20
2019-04-01T09:31:36.367Z,49.10
2019-04-01T09:34:19.359Z,48.60
2019-04-01T09:37:02.592Z,50.10
2019-04-01T09:39:39.073Z,50.10
2019-04-01T09:42:22.131Z,49.40
2019-04-01T09:45:04.317Z,49.70
2019-04-01T09:47:46.514Z,51.40
2019-04-01T09:50:29.753Z,50.90
2019-04-01T09:53:06.030Z,49.90
2019-04-01T09:55:48.557Z,51.40
2019-04-01T09:58:24.958Z,51.60
2019-04-01T10:01:07.916Z,45.40
2019-04-01T10:03:50.858Z,45.00
2019-04-01T10:06:39.889Z,42.70
2019-04-01T10:09:15.641Z,41.70
2019-04-01T10:11:58.532Z,40.50
2019-04-01T10:14:47.253Z,42.10
2019-04-01T10:17:23.779Z,42.50
2019-04-01T10:20:06.713Z,41.70
2019-04-01T10:22:42.669Z,43.60
2019-04-01T10:25:26.245Z,42.10
2019-04-01T10:28:15.306Z,42.10
2019-04-01T10:30:51.730Z,40.70
2019-04-01T10:33:34.178Z,38.20
2019-04-01T10:36:16.999Z,38.00
2019-04-01T10:38:53.366Z,36.90
2019-04-01T10:41:35.544Z,38.20
2019-04-01T10:44:18.831Z,40.60
2019-04-01T10:46:54.742Z,40.00
2019-04-01T10:49:37.976Z,40.80
2019-04-01T10:52:26.678Z,41.50
2019-04-01T10:55:02.331Z,42.30
2019-04-01T10:57:38.854Z,42.90
2019-04-01T11:00:16.112Z,39.30
2019-04-01T11:02:58.661Z,35.40
2019-04-01T11:05:41.534Z,38.30
2019-04-01T11:08:17.987Z,36.50
2019-04-01T11:11:00.430Z,39.10
2019-04-01T11:13:36.864Z,38.20
2019-04-01T11:16:18.669Z,35.40
2019-04-01T11:19:01.295Z,34.60
2019-04-01T11:21:50.434Z,34.90
2019-04-01T11:24:32.493Z,35.90
2019-04-01T11:27:08.084Z,35.40
2019-04-01T11:29:50.994Z,36.90
2019-04-01T11:32:26.558Z,37.50
2019-04-01T11:35:08.638Z,35.60
2019-04-01T11:37:51.698Z,35.10
2019-04-01T11:40:37.025Z,35.50
2019-04-01T11:43:19.388Z,34.30
2019-04-01T11:46:12.529Z,33.30
2019-04-01T11:48:47.990Z,35.50
2019-04-01T11:51:33.023Z,34.20
2019-04-01T11:54:21.503Z,35.10
2019-04-01T11:57:03.251Z,35.90
2019-04-01T11:59:38.882Z,37.30
2019-04-01T12:02:20.747Z,37.20
2019-04-01T12:04:57.261Z,37.00
2019-04-01T12:07:40.019Z,35.70
2019-04-01T12:10:23.651Z,36.60
2019-04-01T12:13:05.750Z,34.90
2019-04-01T12:15:42.287Z,37.10
2019-04-01T12:18:24.315Z,37.60
2019-04-01T12:21:08.261Z,39.00
2019-04-01T12:23:50.846Z,40.50
2019-04-01T12:26:34.096Z,39.90
2019-04-01T12:29:15.912Z,39.50
2019-04-01T12:31:52.264Z,39.70
2019-04-01T12:34:35.621Z,40.30
2019-04-01T12:37:11.496Z,40.70
2019-04-01T12:39:53.149Z,40.00
2019-04-01T12:42:36.378Z,40.30
2019-04-01T12:45:12.230Z,40.30
2019-04-01T12:48:00.772Z,39.70
2019-04-01T12:50:43.616Z,40.30
2019-04-01T12:53:20.260Z,42.10
2019-04-01T12:56:02.571Z,40.50
2019-04-01T12:58:38.461Z,37.90
2019-04-01T13:01:21.138Z,38.10
2019-04-01T13:04:04.472Z,37.90
2019-04-01T13:06:47.850Z,36.90
2019-04-01T13:09:24.436Z,39.10
2019-04-01T13:12:06.233Z,38.40
2019-04-01T13:14:48.827Z,39.50
2019-04-01T13:17:30.951Z,39.20
2019-04-01T13:20:14.125Z,38.30
2019-04-01T13:22:56.622Z,37.80
2019-04-01T13:25:39.060Z,37.70
2019-04-01T13:28:28.236Z,37.50
2019-04-01T13:31:03.823Z,36.10
2019-04-01T13:33:45.947Z,35.90
2019-04-01T13:36:28.161Z,36.80
2019-04-01T13:39:05.138Z,38.10
2019-04-01T13:41:47.874Z,36.90
2019-04-01T13:44:36.057Z,36.40
2019-04-01T13:47:08.333Z,36.00
2019-04-01T13:49:44.601Z,36.30
2019-04-01T13:52:27.246Z,37.50
2019-04-01T13:55:02.988Z,37.50
2019-04-01T13:57:46.072Z,37.60
2019-04-01T14:00:27.052Z,37.80
2019-04-01T14:03:07.165Z,39.10
2019-04-01T14:05:43.648Z,39.80
2019-04-01T14:08:26.027Z,39.40
2019-04-01T14:11:05.699Z,39.70
2019-04-01T14:13:46.240Z,40.00
2019-04-01T14:16:22.362Z,40.00
2019-04-01T14:19:04.856Z,41.10
2019-04-01T14:21:40.958Z,40.80
2019-04-01T14:24:23.462Z,40.30
2019-04-01T14:26:59.390Z,41.50
2019-04-01T14:29:42.025Z,42.60
2019-04-01T14:32:18.592Z,41.40
2019-04-01T14:35:01.675Z,41.90
2019-04-01T14:37:39.634Z,41.20
2019-04-01T14:40:22.123Z,41.30
2019-04-01T14:43:04.600Z,42.50
2019-04-01T14:45:47.297Z,41.70
2019-04-01T14:48:23.729Z,41.00
2019-04-01T14:51:06.363Z,41.80
2019-04-01T14:53:49.515Z,42.50
2019-04-01T14:56:32.540Z,42.60
2019-04-01T14:59:09.075Z,43.60
2019-04-01T15:01:51.385Z,44.10
2019-04-01T15:04:34.564Z,44.80
2019-04-01T15:07:18.293Z,45.20
2019-04-01T15:09:54.200Z,45.10
2019-04-01T15:12:36.101Z,45.10
2019-04-01T15:15:15.072Z,44.70
2019-04-01T15:17:57.624Z,44.70
2019-04-01T15:20:40.376Z,44.00
2019-04-01T15:23:25.014Z,44.50
2019-04-01T15:26:07.103Z,44.90
2019-04-01T15:28:42.588Z,44.00
2019-04-01T15:31:25.778Z,44.00
2019-04-01T15:34:09.278Z,45.30
2019-04-01T15:36:45.288Z,45.30
2019-04-01T15:39:27.395Z,43.80
2019-04-01T15:42:10.428Z,43.40
2019-04-01T15:44:52.829Z,44.90
2019-04-01T15:47:31.090Z,44.60
2019-04-01T15:50:27.869Z,43.20
2019-04-01T15:52:52.622Z,43.90
2019-04-01T15:55:35.033Z,44.00
2019-04-01T15:58:11.488Z,45.80
2019-04-01T16:00:54.513Z,45.00
2019-04-01T16:03:30.732Z,45.20
2019-04-01T16:06:13.199Z,45.10
2019-04-01T16:08:49.611Z,45.00
2019-04-01T16:11:32.014Z,45.00
2019-04-01T16:14:14.943Z,43.90
2019-04-01T16:16:56.926Z,44.90
2019-04-01T16:19:33.370Z,44.90
2019-04-01T16:22:16.320Z,45.80
2019-04-01T16:25:05.502Z,46.20
2019-04-01T16:27:42.910Z,46.20
2019-04-01T16:30:19.621Z,45.70
2019-04-01T16:32:55.130Z,46.50
2019-04-01T16:35:30.944Z,46.20
2019-04-01T16:38:06.989Z,47.70
2019-04-01T16:40:52.342Z,48.30
2019-04-01T16:43:26.087Z,48.60
2019-04-01T16:46:09.288Z,48.90
2019-04-01T16:48:58.651Z,49.70
2019-04-01T16:51:34.948Z,49.80
2019-04-01T16:54:17.367Z,50.30
2019-04-01T16:56:53.503Z,50.80
2019-04-01T16:59:35.970Z,50.90
2019-04-01T17:02:18.667Z,51.10
2019-04-01T17:04:54.572Z,51.10
2019-04-01T17:07:36.678Z,51.60
2019-04-01T17:10:14.452Z,51.60
2019-04-01T17:12:56.472Z,52.10
2019-04-01T17:15:32.666Z,52.20
2019-04-01T17:18:15.351Z,53.60
2019-04-01T17:21:00.734Z,53.40
2019-04-01T17:23:43.514Z,53.20
2019-04-01T17:26:20.017Z,54.20
2019-04-01T17:29:03.179Z,55.30
2019-04-01T17:31:39.593Z,55.80
2019-04-01T17:34:21.393Z,56.50
2019-04-01T17:37:01.045Z,57.20
2019-04-01T17:39:41.897Z,57.60
2019-04-01T17:42:18.209Z,57.90
2019-04-01T17:45:05.465Z,58.20
2019-04-01T17:47:41.117Z,58.40
2019-04-01T17:50:17.836Z,58.70
2019-04-01T17:52:59.579Z,59.20
2019-04-01T17:55:45.555Z,59.60
2019-04-01T17:58:34.802Z,59.80
2019-04-01T18:01:10.971Z,59.70
2019-04-01T18:03:53.417Z,60.30
2019-04-01T18:06:36.100Z,60.40
2019-04-01T18:09:21.929Z,60.90
2019-04-01T18:12:04.387Z,60.90
2019-04-01T18:14:40.134Z,61.40
2019-04-01T18:17:18.387Z,61.40
2019-04-01T18:20:00.590Z,61.30
2019-04-01T18:22:50.726Z,61.20
2019-04-01T18:25:26.527Z,62.30
2019-04-01T18:28:09.532Z,62.50
2019-04-01T18:30:45.864Z,62.40
2019-04-01T18:33:30.053Z,62.60
2019-04-01T18:36:13.231Z,62.10
2019-04-01T18:38:56.347Z,62.30
2019-04-01T18:41:33.193Z,62.60
2019-04-01T18:44:18.643Z,63.60
2019-04-01T18:46:54.737Z,63.40
2019-04-01T18:49:37.214Z,63.20
2019-04-01T18:52:19.599Z,63.40
2019-04-01T18:54:55.234Z,63.30
2019-04-01T18:57:37.730Z,64.00
2019-04-01T19:00:18.837Z,64.60
2019-04-01T19:03:02.568Z,64.20
2019-04-01T19:05:46.909Z,64.50
2019-04-01T19:08:28.377Z,64.80
2019-04-01T19:11:04.103Z,65.80
2019-04-01T19:13:45.779Z,65.80
2019-04-01T19:16:23.159Z,66.00
2019-04-01T19:19:06.489Z,66.60
2019-04-01T19:21:42.811Z,67.40
2019-04-01T19:24:24.607Z,67.90
2019-04-01T19:27:00.813Z,68.70
2019-04-01T19:29:45.398Z,69.50
2019-04-01T19:32:21.523Z,69.80
2019-04-01T19:35:04.951Z,70.50
2019-04-01T19:37:47.517Z,71.30
2019-04-01T19:40:30.400Z,72.20
2019-04-01T19:43:06.860Z,73.40
2019-04-01T19:45:50.788Z,74.20
2019-04-01T19:48:26.462Z,75.10
2019-04-01T19:51:08.687Z,76.30
2019-04-01T19:53:45.217Z,76.80
2019-04-01T19:56:27.242Z,77.40
2019-04-01T19:59:03.659Z,78.00
2019-04-01T20:01:46.843Z,78.40
2019-04-01T20:04:23.699Z,80.10
2019-04-01T20:07:05.999Z,80.90
2019-04-01T20:09:41.703Z,81.60
2019-04-01T20:12:24.134Z,81.30
2019-04-01T20:15:00.766Z,82.00
2019-04-01T20:17:43.542Z,82.10
2019-04-01T20:20:20.095Z,82.60
2019-04-01T20:23:02.326Z,83.40
2019-04-01T20:25:51.914Z,83.80
2019-04-01T20:28:34.285Z,84.10
2019-04-01T20:31:16.523Z,84.40
2019-04-01T20:33:52.132Z,84.20
2019-04-01T20:36:34.697Z,84.10
2019-04-01T20:39:10.586Z,84.30
2019-04-01T20:41:53.567Z,84.70
2019-04-01T20:44:36.565Z,84.80
2019-04-01T20:47:12.482Z,84.90
2019-04-01T20:49:55.152Z,85.00
2019-04-01T20:52:38.123Z,85.10
2019-04-01T20:55:20.976Z,85.00
2019-04-01T20:57:56.698Z,85.00
2019-04-01T21:00:38.896Z,85.20
2019-04-01T21:03:14.397Z,85.30
2019-04-01T21:05:50.393Z,85.10
2019-04-01T21:08:32.948Z,85.00
2019-04-01T21:11:15.219Z,85.20
2019-04-01T21:14:01.203Z,85.20
2019-04-01T21:16:43.363Z,84.90
2019-04-01T21:19:19.355Z,85.00
2019-04-01T21:21:55.901Z,85.10
2019-04-01T21:24:38.676Z,84.70
2019-04-01T21:27:21.554Z,84.40
2019-04-01T21:30:04.507Z,84.40
2019-04-01T21:32:40.569Z,84.60
2019-04-01T21:35:23.073Z,85.00
2019-04-01T21:38:05.285Z,84.80
2019-04-01T21:40:47.744Z,85.20
2019-04-01T21:43:36.634Z,85.00
2019-04-01T21:46:19.102Z,85.00
2019-04-01T21:49:02.149Z,84.90
2019-04-01T21:51:51.519Z,85.10
2019-04-01T21:54:35.096Z,85.20
2019-04-01T21:57:11.589Z,84.90
2019-04-01T21:59:53.974Z,84.90
2019-04-01T22:02:35.748Z,85.30
2019-04-01T22:05:15.234Z,85.20
2019-04-01T22:07:57.649Z,85.10
2019-04-01T22:10:46.692Z,85.10
2019-04-01T22:13:22.264Z,85.10
2019-04-01T22:16:04.714Z,85.00
2019-04-01T22:18:40.378Z,84.90
2019-04-01T22:21:22.675Z,85.00
2019-04-01T22:24:11.416Z,85.00
2019-04-01T22:26:53.170Z,85.50
2019-04-01T22:29:29.362Z,85.40
2019-04-01T22:32:13.019Z,85.40
2019-04-01T22:34:48.186Z,85.20
2019-04-01T22:37:30.877Z,85.40
2019-04-01T22:40:07.308Z,85.50
2019-04-01T22:42:49.305Z,85.40
2019-04-01T22:45:24.927Z,86.10
2019-04-01T22:48:07.107Z,85.40
2019-04-01T22:50:43.555Z,84.80
2019-04-01T22:53:26.326Z,84.90
2019-04-01T22:56:01.803Z,84.90
2019-04-01T22:58:44.039Z,84.40
2019-04-01T23:01:19.665Z,84.70
2019-04-01T23:04:02.573Z,84.50
2019-04-01T23:06:38.390Z,84.20
2019-04-01T23:09:20.926Z,84.60
2019-04-01T23:12:03.194Z,84.30
2019-04-01T23:14:39.843Z,84.40
2019-04-01T23:17:15.605Z,84.20
2019-04-01T23:19:51.204Z,84.00
2019-04-01T23:22:33.966Z,83.90
2019-04-01T23:25:16.651Z,84.00
2019-04-01T23:27:52.467Z,83.50
2019-04-01T23:30:35.032Z,83.60
2019-04-01T23:33:17.554Z,83.50
2019-04-01T23:36:00.442Z,83.30
2019-04-01T23:38:36.880Z,83.60
2019-04-01T23:41:19.601Z,83.50
2019-04-01T23:43:55.990Z,83.80
2019-04-01T23:46:39.157Z,83.30
2019-04-01T23:49:22.136Z,83.50
2019-04-01T23:52:05.483Z,83.10
2019-04-01T23:54:42.174Z,83.50
2019-04-01T23:57:25.131Z,83.70
